sensor_id;sensor_type;location;lat;lon;timestamp;temperature;humidity
7704;DHT22;3894;49.700;10.770;2023-07-16T00:01:57;21.30;99.90
7704;DHT22;3894;49.700;10.770;2023-07-16T00:04:23;21.30;99.90
7704;DHT22;3894;49.700;10.770;2023-07-16T00:06:49;21.20;99.90
7704;DHT22;3894;49.700;10.770;2023-07-16T00:09:14;21.10;99.90
7704;DHT22;3894;49.700;10.770;2023-07-16T00:11:40;21.00;99.90
7704;DHT22;3894;49.700;10.770;2023-07-16T00:14:06;21.00;99.90
7704;DHT22;3894;49.700;10.770;2023-07-16T00:16:31;21.10;99.90
7704;DHT22;3894;49.700;10.770;2023-07-16T00:18:57;21.20;99.90
7704;DHT22;3894;49.700;10.770;2023-07-16T00:21:23;21.20;99.90
7704;DHT22;3894;49.700;10.770;2023-07-16T00:23:50;21.20;99.90
7704;DHT22;3894;49.700;10.770;2023-07-16T00:26:16;21.20;99.90
7704;DHT22;3894;49.700;10.770;2023-07-16T00:28:42;21.20;99.90
7704;DHT22;3894;49.700;10.770;2023-07-16T00:31:07;21.20;99.90
7704;DHT22;3894;49.700;10.770;2023-07-16T00:33:33;21.20;99.90
7704;DHT22;3894;49.700;10.770;2023-07-16T00:35:58;21.20;99.90
7704;DHT22;3894;49.700;10.770;2023-07-16T00:38:24;21.10;99.90
7704;DHT22;3894;49.700;10.770;2023-07-16T00:40:50;21.00;99.90
7704;DHT22;3894;49.700;10.770;2023-07-16T00:43:15;20.90;99.90
7704;DHT22;3894;49.700;10.770;2023-07-16T00:45:42;20.80;99.90
7704;DHT22;3894;49.700;10.770;2023-07-16T00:48:10;20.90;99.90
7704;DHT22;3894;49.700;10.770;2023-07-16T00:50:37;20.90;99.90
7704;DHT22;3894;49.700;10.770;2023-07-16T00:53:06;20.90;99.90
7704;DHT22;3894;49.700;10.770;2023-07-16T00:55:32;20.90;99.90
7704;DHT22;3894;49.700;10.770;2023-07-16T00:58:01;20.80;99.90
7704;DHT22;3894;49.700;10.770;2023-07-16T01:00:31;20.70;99.90
7704;DHT22;3894;49.700;10.770;2023-07-16T01:02:56;20.60;99.90
7704;DHT22;3894;49.700;10.770;2023-07-16T01:05:24;20.50;99.90
7704;DHT22;3894;49.700;10.770;2023-07-16T01:08:01;20.40;99.90
7704;DHT22;3894;49.700;10.770;2023-07-16T01:10:28;20.30;99.90
7704;DHT22;3894;49.700;10.770;2023-07-16T01:12:55;20.20;99.90
7704;DHT22;3894;49.700;10.770;2023-07-16T01:15:21;20.20;99.90
7704;DHT22;3894;49.700;10.770;2023-07-16T01:17:47;20.20;99.90
7704;DHT22;3894;49.700;10.770;2023-07-16T01:20:12;20.10;99.90
7704;DHT22;3894;49.700;10.770;2023-07-16T01:31:00;20.10;99.90
7704;DHT22;3894;49.700;10.770;2023-07-16T01:33:26;20.10;99.90
7704;DHT22;3894;49.700;10.770;2023-07-16T01:35:52;20.10;99.90
7704;DHT22;3894;49.700;10.770;2023-07-16T01:38:18;20.10;99.90
7704;DHT22;3894;49.700;10.770;2023-07-16T01:40:46;20.10;99.90
7704;DHT22;3894;49.700;10.770;2023-07-16T01:43:12;20.10;99.90
7704;DHT22;3894;49.700;10.770;2023-07-16T01:45:37;20.10;99.90
7704;DHT22;3894;49.700;10.770;2023-07-16T01:48:14;20.10;99.90
7704;DHT22;3894;49.700;10.770;2023-07-16T01:50:42;20.20;99.90
7704;DHT22;3894;49.700;10.770;2023-07-16T01:53:08;20.20;99.90
7704;DHT22;3894;49.700;10.770;2023-07-16T01:55:34;20.30;99.90
7704;DHT22;3894;49.700;10.770;2023-07-16T01:57:59;20.30;99.90
7704;DHT22;3894;49.700;10.770;2023-07-16T02:00:25;20.40;99.90
7704;DHT22;3894;49.700;10.770;2023-07-16T02:02:50;20.40;99.90
7704;DHT22;3894;49.700;10.770;2023-07-16T02:05:16;20.40;99.90
7704;DHT22;3894;49.700;10.770;2023-07-16T02:07:42;20.40;99.90
7704;DHT22;3894;49.700;10.770;2023-07-16T02:10:07;20.40;99.90
7704;DHT22;3894;49.700;10.770;2023-07-16T02:12:33;20.50;99.90
7704;DHT22;3894;49.700;10.770;2023-07-16T02:14:59;20.50;99.90
7704;DHT22;3894;49.700;10.770;2023-07-16T02:17:24;20.50;99.90
7704;DHT22;3894;49.700;10.770;2023-07-16T02:19:50;20.40;99.90
7704;DHT22;3894;49.700;10.770;2023-07-16T02:22:15;20.40;99.90
7704;DHT22;3894;49.700;10.770;2023-07-16T02:24:41;20.40;99.90
7704;DHT22;3894;49.700;10.770;2023-07-16T02:27:06;20.40;99.90
7704;DHT22;3894;49.700;10.770;2023-07-16T02:29:32;20.40;99.90
7704;DHT22;3894;49.700;10.770;2023-07-16T02:31:57;20.30;99.90
7704;DHT22;3894;49.700;10.770;2023-07-16T02:34:23;20.20;99.90
7704;DHT22;3894;49.700;10.770;2023-07-16T02:36:49;20.20;99.90
7704;DHT22;3894;49.700;10.770;2023-07-16T02:39:14;20.10;99.90
7704;DHT22;3894;49.700;10.770;2023-07-16T02:41:40;20.00;99.90
7704;DHT22;3894;49.700;10.770;2023-07-16T02:44:06;20.00;99.90
7704;DHT22;3894;49.700;10.770;2023-07-16T02:46:32;20.00;99.90
7704;DHT22;3894;49.700;10.770;2023-07-16T02:48:58;19.90;99.90
7704;DHT22;3894;49.700;10.770;2023-07-16T02:51:24;19.90;99.90
7704;DHT22;3894;49.700;10.770;2023-07-16T02:53:49;19.90;99.90
7704;DHT22;3894;49.700;10.770;2023-07-16T02:56:15;19.90;99.90
7704;DHT22;3894;49.700;10.770;2023-07-16T02:58:41;19.90;99.90
7704;DHT22;3894;49.700;10.770;2023-07-16T03:01:07;19.80;99.90
7704;DHT22;3894;49.700;10.770;2023-07-16T03:03:33;19.80;99.90
7704;DHT22;3894;49.700;10.770;2023-07-16T03:05:58;19.80;99.90
7704;DHT22;3894;49.700;10.770;2023-07-16T03:08:24;19.70;99.90
7704;DHT22;3894;49.700;10.770;2023-07-16T03:10:51;19.70;99.90
7704;DHT22;3894;49.700;10.770;2023-07-16T03:13:17;19.70;99.90
7704;DHT22;3894;49.700;10.770;2023-07-16T03:15:42;19.70;99.90
7704;DHT22;3894;49.700;10.770;2023-07-16T03:18:08;19.70;99.90
7704;DHT22;3894;49.700;10.770;2023-07-16T03:20:33;19.70;99.90
7704;DHT22;3894;49.700;10.770;2023-07-16T03:22:59;19.70;99.90
7704;DHT22;3894;49.700;10.770;2023-07-16T03:25:24;19.60;99.90
7704;DHT22;3894;49.700;10.770;2023-07-16T03:27:50;19.60;99.90
7704;DHT22;3894;49.700;10.770;2023-07-16T03:30:16;19.60;99.90
7704;DHT22;3894;49.700;10.770;2023-07-16T03:32:41;19.60;99.90
7704;DHT22;3894;49.700;10.770;2023-07-16T03:35:07;19.60;99.90
7704;DHT22;3894;49.700;10.770;2023-07-16T03:37:32;19.60;99.90
7704;DHT22;3894;49.700;10.770;2023-07-16T03:40:15;19.50;99.90
7704;DHT22;3894;49.700;10.770;2023-07-16T03:42:41;19.50;99.90
7704;DHT22;3894;49.700;10.770;2023-07-16T03:45:07;19.50;99.90
7704;DHT22;3894;49.700;10.770;2023-07-16T03:47:33;19.50;99.90
7704;DHT22;3894;49.700;10.770;2023-07-16T03:49:59;19.40;99.90
7704;DHT22;3894;49.700;10.770;2023-07-16T03:52:24;19.40;99.90
7704;DHT22;3894;49.700;10.770;2023-07-16T03:54:51;19.30;99.90
7704;DHT22;3894;49.700;10.770;2023-07-16T03:57:17;19.30;99.90
7704;DHT22;3894;49.700;10.770;2023-07-16T03:59:42;19.30;99.90
7704;DHT22;3894;49.700;10.770;2023-07-16T04:02:08;19.20;99.90
7704;DHT22;3894;49.700;10.770;2023-07-16T04:04:35;19.20;99.90
7704;DHT22;3894;49.700;10.770;2023-07-16T04:07:01;19.20;99.90
7704;DHT22;3894;49.700;10.770;2023-07-16T04:09:27;19.20;99.90
7704;DHT22;3894;49.700;10.770;2023-07-16T04:11:52;19.20;99.90
7704;DHT22;3894;49.700;10.770;2023-07-16T04:14:18;19.20;99.90
7704;DHT22;3894;49.700;10.770;2023-07-16T04:16:43;19.30;99.90
7704;DHT22;3894;49.700;10.770;2023-07-16T04:19:09;19.30;99.90
7704;DHT22;3894;49.700;10.770;2023-07-16T04:21:35;19.30;99.90
7704;DHT22;3894;49.700;10.770;2023-07-16T04:24:02;19.30;99.90
7704;DHT22;3894;49.700;10.770;2023-07-16T04:26:28;19.20;99.90
7704;DHT22;3894;49.700;10.770;2023-07-16T04:28:53;19.10;99.90
7704;DHT22;3894;49.700;10.770;2023-07-16T04:31:19;19.10;99.90
7704;DHT22;3894;49.700;10.770;2023-07-16T04:33:44;19.00;99.90
7704;DHT22;3894;49.700;10.770;2023-07-16T04:36:10;19.00;99.90
7704;DHT22;3894;49.700;10.770;2023-07-16T04:38:36;19.10;99.90
7704;DHT22;3894;49.700;10.770;2023-07-16T04:41:01;19.10;99.90
7704;DHT22;3894;49.700;10.770;2023-07-16T04:43:27;19.10;99.90
7704;DHT22;3894;49.700;10.770;2023-07-16T04:45:52;19.10;99.90
7704;DHT22;3894;49.700;10.770;2023-07-16T04:48:18;19.00;99.90
7704;DHT22;3894;49.700;10.770;2023-07-16T04:50:43;18.90;99.90
7704;DHT22;3894;49.700;10.770;2023-07-16T04:53:09;19.00;99.90
7704;DHT22;3894;49.700;10.770;2023-07-16T04:55:38;19.00;99.90
7704;DHT22;3894;49.700;10.770;2023-07-16T04:58:05;19.00;99.90
7704;DHT22;3894;49.700;10.770;2023-07-16T05:00:32;19.00;99.90
7704;DHT22;3894;49.700;10.770;2023-07-16T05:02:58;18.90;99.90
7704;DHT22;3894;49.700;10.770;2023-07-16T05:05:24;18.90;99.90
7704;DHT22;3894;49.700;10.770;2023-07-16T05:07:49;18.90;99.90
7704;DHT22;3894;49.700;10.770;2023-07-16T05:10:15;18.90;99.90
7704;DHT22;3894;49.700;10.770;2023-07-16T05:12:40;18.80;99.90
7704;DHT22;3894;49.700;10.770;2023-07-16T05:15:06;18.80;99.90
7704;DHT22;3894;49.700;10.770;2023-07-16T05:17:32;18.70;99.90
7704;DHT22;3894;49.700;10.770;2023-07-16T05:19:58;18.80;99.90
7704;DHT22;3894;49.700;10.770;2023-07-16T05:22:23;18.80;99.90
7704;DHT22;3894;49.700;10.770;2023-07-16T05:24:49;18.80;99.90
7704;DHT22;3894;49.700;10.770;2023-07-16T05:27:14;18.80;99.90
7704;DHT22;3894;49.700;10.770;2023-07-16T05:29:40;18.90;99.90
7704;DHT22;3894;49.700;10.770;2023-07-16T05:32:06;18.80;99.90
7704;DHT22;3894;49.700;10.770;2023-07-16T05:34:31;18.80;99.90
7704;DHT22;3894;49.700;10.770;2023-07-16T05:36:57;18.80;99.90
7704;DHT22;3894;49.700;10.770;2023-07-16T05:39:22;18.80;99.90
7704;DHT22;3894;49.700;10.770;2023-07-16T05:41:48;18.80;99.90
7704;DHT22;3894;49.700;10.770;2023-07-16T05:44:14;18.80;99.90
7704;DHT22;3894;49.700;10.770;2023-07-16T05:46:39;18.80;99.90
7704;DHT22;3894;49.700;10.770;2023-07-16T05:49:05;18.80;99.90
7704;DHT22;3894;49.700;10.770;2023-07-16T05:51:30;18.80;99.90
7704;DHT22;3894;49.700;10.770;2023-07-16T05:53:57;18.90;99.90
7704;DHT22;3894;49.700;10.770;2023-07-16T05:56:22;19.00;99.90
7704;DHT22;3894;49.700;10.770;2023-07-16T05:58:48;19.00;99.90
7704;DHT22;3894;49.700;10.770;2023-07-16T06:01:13;18.90;99.90
7704;DHT22;3894;49.700;10.770;2023-07-16T06:03:39;18.90;99.90
7704;DHT22;3894;49.700;10.770;2023-07-16T06:06:04;19.00;99.90
7704;DHT22;3894;49.700;10.770;2023-07-16T06:08:30;19.10;99.90
7704;DHT22;3894;49.700;10.770;2023-07-16T06:10:56;19.10;99.90
7704;DHT22;3894;49.700;10.770;2023-07-16T06:13:21;19.10;99.90
7704;DHT22;3894;49.700;10.770;2023-07-16T06:15:47;19.10;99.90
7704;DHT22;3894;49.700;10.770;2023-07-16T06:18:13;19.00;99.90
7704;DHT22;3894;49.700;10.770;2023-07-16T06:20:38;19.00;99.90
7704;DHT22;3894;49.700;10.770;2023-07-16T06:23:04;19.00;99.90
7704;DHT22;3894;49.700;10.770;2023-07-16T06:25:30;18.90;99.90
7704;DHT22;3894;49.700;10.770;2023-07-16T06:27:55;18.90;99.90
7704;DHT22;3894;49.700;10.770;2023-07-16T06:30:21;18.90;99.90
7704;DHT22;3894;49.700;10.770;2023-07-16T06:32:47;18.90;99.90
7704;DHT22;3894;49.700;10.770;2023-07-16T06:35:13;19.00;99.90
7704;DHT22;3894;49.700;10.770;2023-07-16T06:37:38;19.10;99.90
7704;DHT22;3894;49.700;10.770;2023-07-16T06:40:04;19.10;99.90
7704;DHT22;3894;49.700;10.770;2023-07-16T06:42:30;19.20;99.90
7704;DHT22;3894;49.700;10.770;2023-07-16T06:44:56;19.20;99.90
7704;DHT22;3894;49.700;10.770;2023-07-16T06:47:22;19.20;99.90
7704;DHT22;3894;49.700;10.770;2023-07-16T06:49:47;19.30;99.90
7704;DHT22;3894;49.700;10.770;2023-07-16T06:52:23;19.40;99.90
7704;DHT22;3894;49.700;10.770;2023-07-16T06:54:49;19.40;99.90
7704;DHT22;3894;49.700;10.770;2023-07-16T06:57:15;19.30;99.90
7704;DHT22;3894;49.700;10.770;2023-07-16T06:59:41;19.30;99.90
7704;DHT22;3894;49.700;10.770;2023-07-16T07:02:06;19.20;99.90
7704;DHT22;3894;49.700;10.770;2023-07-16T07:04:32;19.30;99.90
7704;DHT22;3894;49.700;10.770;2023-07-16T07:06:58;19.30;99.90
7704;DHT22;3894;49.700;10.770;2023-07-16T07:09:23;19.20;99.90
7704;DHT22;3894;49.700;10.770;2023-07-16T07:11:49;19.20;99.90
7704;DHT22;3894;49.700;10.770;2023-07-16T07:14:14;19.20;99.90
7704;DHT22;3894;49.700;10.770;2023-07-16T07:16:40;19.30;99.90
7704;DHT22;3894;49.700;10.770;2023-07-16T07:19:06;19.30;99.90
7704;DHT22;3894;49.700;10.770;2023-07-16T07:21:31;19.30;99.90
7704;DHT22;3894;49.700;10.770;2023-07-16T07:23:57;19.30;99.90
7704;DHT22;3894;49.700;10.770;2023-07-16T07:26:23;19.30;99.90
7704;DHT22;3894;49.700;10.770;2023-07-16T07:28:48;19.30;99.90
7704;DHT22;3894;49.700;10.770;2023-07-16T07:31:14;19.30;99.90
7704;DHT22;3894;49.700;10.770;2023-07-16T07:33:40;19.30;99.90
7704;DHT22;3894;49.700;10.770;2023-07-16T07:36:05;19.40;99.90
7704;DHT22;3894;49.700;10.770;2023-07-16T07:38:31;19.50;99.90
7704;DHT22;3894;49.700;10.770;2023-07-16T07:40:57;19.70;99.90
7704;DHT22;3894;49.700;10.770;2023-07-16T07:43:22;19.70;99.90
7704;DHT22;3894;49.700;10.770;2023-07-16T07:45:48;19.70;99.90
7704;DHT22;3894;49.700;10.770;2023-07-16T07:48:13;19.70;99.90
7704;DHT22;3894;49.700;10.770;2023-07-16T07:50:39;19.70;99.90
7704;DHT22;3894;49.700;10.770;2023-07-16T07:53:05;19.90;99.90
7704;DHT22;3894;49.700;10.770;2023-07-16T07:55:31;19.90;99.90
7704;DHT22;3894;49.700;10.770;2023-07-16T07:57:57;19.80;99.90
7704;DHT22;3894;49.700;10.770;2023-07-16T08:00:22;19.80;99.90
7704;DHT22;3894;49.700;10.770;2023-07-16T08:02:48;19.80;99.90
7704;DHT22;3894;49.700;10.770;2023-07-16T08:05:13;19.80;99.90
7704;DHT22;3894;49.700;10.770;2023-07-16T08:07:39;19.90;99.90
7704;DHT22;3894;49.700;10.770;2023-07-16T08:10:05;19.80;99.90
7704;DHT22;3894;49.700;10.770;2023-07-16T08:12:30;19.80;99.90
7704;DHT22;3894;49.700;10.770;2023-07-16T08:14:56;19.90;99.90
7704;DHT22;3894;49.700;10.770;2023-07-16T08:17:22;19.90;99.90
7704;DHT22;3894;49.700;10.770;2023-07-16T08:19:47;19.90;99.90
7704;DHT22;3894;49.700;10.770;2023-07-16T08:22:13;19.80;99.90
7704;DHT22;3894;49.700;10.770;2023-07-16T08:24:38;19.80;99.90
7704;DHT22;3894;49.700;10.770;2023-07-16T08:27:04;19.80;99.90
7704;DHT22;3894;49.700;10.770;2023-07-16T08:29:30;19.80;99.90
7704;DHT22;3894;49.700;10.770;2023-07-16T08:31:55;19.80;99.90
7704;DHT22;3894;49.700;10.770;2023-07-16T08:34:21;19.90;99.90
7704;DHT22;3894;49.700;10.770;2023-07-16T08:36:46;19.90;99.90
7704;DHT22;3894;49.700;10.770;2023-07-16T08:39:12;20.10;99.90
7704;DHT22;3894;49.700;10.770;2023-07-16T08:41:39;20.60;99.90
7704;DHT22;3894;49.700;10.770;2023-07-16T08:44:04;21.20;99.90
7704;DHT22;3894;49.700;10.770;2023-07-16T08:46:31;21.50;99.90
7704;DHT22;3894;49.700;10.770;2023-07-16T08:48:56;21.70;99.90
7704;DHT22;3894;49.700;10.770;2023-07-16T08:51:23;21.70;99.90
7704;DHT22;3894;49.700;10.770;2023-07-16T08:53:50;21.70;99.90
7704;DHT22;3894;49.700;10.770;2023-07-16T08:56:15;21.90;99.90
7704;DHT22;3894;49.700;10.770;2023-07-16T08:58:43;22.10;99.90
7704;DHT22;3894;49.700;10.770;2023-07-16T09:01:09;22.40;99.90
7704;DHT22;3894;49.700;10.770;2023-07-16T09:03:35;22.50;99.90
7704;DHT22;3894;49.700;10.770;2023-07-16T09:06:02;22.60;99.90
7704;DHT22;3894;49.700;10.770;2023-07-16T09:08:29;22.50;99.90
7704;DHT22;3894;49.700;10.770;2023-07-16T09:10:56;22.60;99.90
7704;DHT22;3894;49.700;10.770;2023-07-16T09:13:22;22.20;99.90
7704;DHT22;3894;49.700;10.770;2023-07-16T09:15:55;22.10;99.90
7704;DHT22;3894;49.700;10.770;2023-07-16T09:18:25;22.30;99.90
7704;DHT22;3894;49.700;10.770;2023-07-16T09:20:57;22.40;99.90
7704;DHT22;3894;49.700;10.770;2023-07-16T09:23:25;22.70;99.90
7704;DHT22;3894;49.700;10.770;2023-07-16T09:25:52;22.90;99.90
7704;DHT22;3894;49.700;10.770;2023-07-16T09:28:19;23.10;99.90
7704;DHT22;3894;49.700;10.770;2023-07-16T09:30:46;23.30;99.90
7704;DHT22;3894;49.700;10.770;2023-07-16T09:33:17;23.10;99.90
7704;DHT22;3894;49.700;10.770;2023-07-16T09:35:44;22.80;99.90
7704;DHT22;3894;49.700;10.770;2023-07-16T09:38:11;23.00;99.90
7704;DHT22;3894;49.700;10.770;2023-07-16T09:40:37;23.10;99.90
7704;DHT22;3894;49.700;10.770;2023-07-16T09:43:03;23.10;99.90
7704;DHT22;3894;49.700;10.770;2023-07-16T09:45:30;23.40;99.90
7704;DHT22;3894;49.700;10.770;2023-07-16T09:47:56;23.50;99.90
7704;DHT22;3894;49.700;10.770;2023-07-16T09:50:28;23.40;99.90
7704;DHT22;3894;49.700;10.770;2023-07-16T09:52:54;23.40;99.90
7704;DHT22;3894;49.700;10.770;2023-07-16T09:55:21;23.30;99.90
7704;DHT22;3894;49.700;10.770;2023-07-16T09:57:47;23.40;99.90
7704;DHT22;3894;49.700;10.770;2023-07-16T10:00:15;23.50;99.90
7704;DHT22;3894;49.700;10.770;2023-07-16T10:02:42;23.10;99.90
7704;DHT22;3894;49.700;10.770;2023-07-16T10:05:19;22.80;99.90
7704;DHT22;3894;49.700;10.770;2023-07-16T10:07:52;22.90;99.90
7704;DHT22;3894;49.700;10.770;2023-07-16T10:10:19;23.20;99.90
7704;DHT22;3894;49.700;10.770;2023-07-16T10:13:01;23.60;99.90
7704;DHT22;3894;49.700;10.770;2023-07-16T10:15:30;23.70;99.90
7704;DHT22;3894;49.700;10.770;2023-07-16T10:17:57;23.70;99.90
7704;DHT22;3894;49.700;10.770;2023-07-16T10:20:33;23.90;99.90
7704;DHT22;3894;49.700;10.770;2023-07-16T10:23:13;24.10;99.90
7704;DHT22;3894;49.700;10.770;2023-07-16T10:25:41;24.30;99.90
7704;DHT22;3894;49.700;10.770;2023-07-16T10:28:06;24.10;99.90
7704;DHT22;3894;49.700;10.770;2023-07-16T10:30:33;24.10;99.90
7704;DHT22;3894;49.700;10.770;2023-07-16T10:33:03;24.00;99.90
7704;DHT22;3894;49.700;10.770;2023-07-16T10:35:41;24.20;99.90
7704;DHT22;3894;49.700;10.770;2023-07-16T10:38:06;24.10;99.90
7704;DHT22;3894;49.700;10.770;2023-07-16T10:40:32;24.00;99.90
7704;DHT22;3894;49.700;10.770;2023-07-16T10:42:58;23.80;99.90
7704;DHT22;3894;49.700;10.770;2023-07-16T10:45:23;23.50;99.90
7704;DHT22;3894;49.700;10.770;2023-07-16T10:47:54;23.30;99.90
7704;DHT22;3894;49.700;10.770;2023-07-16T10:50:20;23.20;99.90
7704;DHT22;3894;49.700;10.770;2023-07-16T10:52:56;23.20;99.90
7704;DHT22;3894;49.700;10.770;2023-07-16T10:55:22;23.00;99.90
7704;DHT22;3894;49.700;10.770;2023-07-16T10:57:49;23.30;99.90
7704;DHT22;3894;49.700;10.770;2023-07-16T11:00:16;23.50;99.90
7704;DHT22;3894;49.700;10.770;2023-07-16T11:02:42;23.80;99.90
7704;DHT22;3894;49.700;10.770;2023-07-16T11:05:12;24.20;99.90
7704;DHT22;3894;49.700;10.770;2023-07-16T11:07:37;24.60;99.90
7704;DHT22;3894;49.700;10.770;2023-07-16T11:10:03;24.70;99.90
7704;DHT22;3894;49.700;10.770;2023-07-16T11:12:29;24.70;99.90
7704;DHT22;3894;49.700;10.770;2023-07-16T11:14:56;24.40;99.90
7704;DHT22;3894;49.700;10.770;2023-07-16T11:17:23;24.40;99.90
7704;DHT22;3894;49.700;10.770;2023-07-16T11:19:51;24.00;99.90
7704;DHT22;3894;49.700;10.770;2023-07-16T11:22:17;23.90;99.90
7704;DHT22;3894;49.700;10.770;2023-07-16T11:24:50;24.30;99.90
7704;DHT22;3894;49.700;10.770;2023-07-16T11:27:18;24.60;99.90
7704;DHT22;3894;49.700;10.770;2023-07-16T11:29:48;24.60;99.90
7704;DHT22;3894;49.700;10.770;2023-07-16T11:32:46;24.50;99.90
7704;DHT22;3894;49.700;10.770;2023-07-16T11:35:19;24.00;99.90
7704;DHT22;3894;49.700;10.770;2023-07-16T11:37:45;23.90;99.90
7704;DHT22;3894;49.700;10.770;2023-07-16T11:40:16;23.70;99.90
7704;DHT22;3894;49.700;10.770;2023-07-16T11:42:42;24.10;99.90
7704;DHT22;3894;49.700;10.770;2023-07-16T11:45:18;24.10;99.90
7704;DHT22;3894;49.700;10.770;2023-07-16T11:47:44;24.40;99.90
7704;DHT22;3894;49.700;10.770;2023-07-16T11:50:10;24.60;99.00
7704;DHT22;3894;49.700;10.770;2023-07-16T11:52:35;24.50;99.20
7704;DHT22;3894;49.700;10.770;2023-07-16T11:55:01;24.40;99.00
7704;DHT22;3894;49.700;10.770;2023-07-16T11:57:27;24.40;99.60
7704;DHT22;3894;49.700;10.770;2023-07-16T11:59:53;24.50;99.40
7704;DHT22;3894;49.700;10.770;2023-07-16T12:02:19;25.10;99.50
7704;DHT22;3894;49.700;10.770;2023-07-16T12:04:45;25.50;98.30
7704;DHT22;3894;49.700;10.770;2023-07-16T12:07:11;25.70;98.10
7704;DHT22;3894;49.700;10.770;2023-07-16T12:09:37;25.80;97.10
7704;DHT22;3894;49.700;10.770;2023-07-16T12:12:03;25.80;97.50
7704;DHT22;3894;49.700;10.770;2023-07-16T12:14:28;25.90;96.40
7704;DHT22;3894;49.700;10.770;2023-07-16T12:16:54;25.80;96.90
7704;DHT22;3894;49.700;10.770;2023-07-16T12:19:20;26.20;96.70
7704;DHT22;3894;49.700;10.770;2023-07-16T12:21:46;26.40;96.80
7704;DHT22;3894;49.700;10.770;2023-07-16T12:24:11;26.70;96.40
7704;DHT22;3894;49.700;10.770;2023-07-16T12:26:37;26.80;95.30
7704;DHT22;3894;49.700;10.770;2023-07-16T12:29:03;26.70;94.40
7704;DHT22;3894;49.700;10.770;2023-07-16T12:31:33;26.70;95.00
7704;DHT22;3894;49.700;10.770;2023-07-16T12:33:59;26.80;93.90
7704;DHT22;3894;49.700;10.770;2023-07-16T12:36:25;26.60;94.90
7704;DHT22;3894;49.700;10.770;2023-07-16T12:38:50;26.70;94.80
7704;DHT22;3894;49.700;10.770;2023-07-16T12:41:16;26.80;94.50
7704;DHT22;3894;49.700;10.770;2023-07-16T12:43:42;27.00;94.30
7704;DHT22;3894;49.700;10.770;2023-07-16T12:46:07;27.00;93.70
7704;DHT22;3894;49.700;10.770;2023-07-16T12:48:33;26.70;92.40
7704;DHT22;3894;49.700;10.770;2023-07-16T12:50:59;26.30;93.40
7704;DHT22;3894;49.700;10.770;2023-07-16T12:53:25;26.20;93.40
7704;DHT22;3894;49.700;10.770;2023-07-16T12:55:52;26.30;93.60
7704;DHT22;3894;49.700;10.770;2023-07-16T12:58:18;26.40;93.30
7704;DHT22;3894;49.700;10.770;2023-07-16T13:00:43;26.20;92.90
7704;DHT22;3894;49.700;10.770;2023-07-16T13:03:09;26.30;93.70
7704;DHT22;3894;49.700;10.770;2023-07-16T13:05:37;26.30;93.10
7704;DHT22;3894;49.700;10.770;2023-07-16T13:08:04;26.50;93.60
7704;DHT22;3894;49.700;10.770;2023-07-16T13:10:29;26.40;91.70
7704;DHT22;3894;49.700;10.770;2023-07-16T13:12:55;26.40;92.40
7704;DHT22;3894;49.700;10.770;2023-07-16T13:15:21;26.80;92.50
7704;DHT22;3894;49.700;10.770;2023-07-16T13:17:46;26.80;91.60
7704;DHT22;3894;49.700;10.770;2023-07-16T13:20:13;26.90;92.70
7704;DHT22;3894;49.700;10.770;2023-07-16T13:22:38;27.10;91.90
7704;DHT22;3894;49.700;10.770;2023-07-16T13:25:04;27.30;92.00
7704;DHT22;3894;49.700;10.770;2023-07-16T13:27:30;27.40;92.60
7704;DHT22;3894;49.700;10.770;2023-07-16T13:29:56;27.50;92.30
7704;DHT22;3894;49.700;10.770;2023-07-16T13:32:22;27.80;92.80
7704;DHT22;3894;49.700;10.770;2023-07-16T13:34:47;27.80;90.90
7704;DHT22;3894;49.700;10.770;2023-07-16T13:37:14;27.30;91.30
7704;DHT22;3894;49.700;10.770;2023-07-16T13:39:39;27.20;91.80
7704;DHT22;3894;49.700;10.770;2023-07-16T13:42:05;27.40;92.00
7704;DHT22;3894;49.700;10.770;2023-07-16T13:44:32;27.50;91.10
7704;DHT22;3894;49.700;10.770;2023-07-16T13:46:58;27.60;91.10
7704;DHT22;3894;49.700;10.770;2023-07-16T13:49:23;27.80;91.00
7704;DHT22;3894;49.700;10.770;2023-07-16T13:51:49;27.50;90.20
7704;DHT22;3894;49.700;10.770;2023-07-16T13:54:14;27.40;90.60
7704;DHT22;3894;49.700;10.770;2023-07-16T13:56:40;27.30;90.90
7704;DHT22;3894;49.700;10.770;2023-07-16T13:59:06;27.40;90.90
7704;DHT22;3894;49.700;10.770;2023-07-16T14:01:31;27.40;90.80
7704;DHT22;3894;49.700;10.770;2023-07-16T14:03:57;27.30;90.90
7704;DHT22;3894;49.700;10.770;2023-07-16T14:06:22;27.40;90.80
7704;DHT22;3894;49.700;10.770;2023-07-16T14:08:48;27.10;90.60
7704;DHT22;3894;49.700;10.770;2023-07-16T14:11:14;27.00;90.60
7704;DHT22;3894;49.700;10.770;2023-07-16T14:13:41;26.70;90.30
7704;DHT22;3894;49.700;10.770;2023-07-16T14:16:06;26.70;90.20
7704;DHT22;3894;49.700;10.770;2023-07-16T14:18:32;26.70;90.80
7704;DHT22;3894;49.700;10.770;2023-07-16T14:20:58;26.80;90.40
7704;DHT22;3894;49.700;10.770;2023-07-16T14:23:23;26.90;90.60
7704;DHT22;3894;49.700;10.770;2023-07-16T14:25:49;26.90;90.30
7704;DHT22;3894;49.700;10.770;2023-07-16T14:28:14;26.70;90.70
7704;DHT22;3894;49.700;10.770;2023-07-16T14:30:40;26.90;91.00
7704;DHT22;3894;49.700;10.770;2023-07-16T14:33:06;27.10;91.00
7704;DHT22;3894;49.700;10.770;2023-07-16T14:35:33;27.40;90.90
7704;DHT22;3894;49.700;10.770;2023-07-16T14:37:58;27.50;91.00
7704;DHT22;3894;49.700;10.770;2023-07-16T14:40:24;27.50;90.30
7704;DHT22;3894;49.700;10.770;2023-07-16T14:42:51;27.30;90.00
7704;DHT22;3894;49.700;10.770;2023-07-16T14:45:17;27.20;89.90
7704;DHT22;3894;49.700;10.770;2023-07-16T14:47:43;26.80;89.70
7704;DHT22;3894;49.700;10.770;2023-07-16T14:50:09;26.70;90.10
7704;DHT22;3894;49.700;10.770;2023-07-16T14:52:34;26.70;90.00
7704;DHT22;3894;49.700;10.770;2023-07-16T14:55:01;26.70;90.20
7704;DHT22;3894;49.700;10.770;2023-07-16T14:57:27;26.80;90.10
7704;DHT22;3894;49.700;10.770;2023-07-16T14:59:52;27.00;90.10
7704;DHT22;3894;49.700;10.770;2023-07-16T15:02:18;27.10;90.20
7704;DHT22;3894;49.700;10.770;2023-07-16T15:04:43;27.10;89.80
7704;DHT22;3894;49.700;10.770;2023-07-16T15:07:09;26.90;88.50
7704;DHT22;3894;49.700;10.770;2023-07-16T15:09:34;26.70;89.10
7704;DHT22;3894;49.700;10.770;2023-07-16T15:12:04;26.60;88.60
7704;DHT22;3894;49.700;10.770;2023-07-16T15:14:29;26.70;89.60
7704;DHT22;3894;49.700;10.770;2023-07-16T15:16:55;26.80;88.70
7704;DHT22;3894;49.700;10.770;2023-07-16T15:19:20;26.60;88.30
7704;DHT22;3894;49.700;10.770;2023-07-16T15:21:46;26.70;88.30
7704;DHT22;3894;49.700;10.770;2023-07-16T15:24:12;26.80;88.10
7704;DHT22;3894;49.700;10.770;2023-07-16T15:26:38;26.80;87.40
7704;DHT22;3894;49.700;10.770;2023-07-16T15:29:03;26.80;86.90
7704;DHT22;3894;49.700;10.770;2023-07-16T15:31:29;26.90;86.10
7704;DHT22;3894;49.700;10.770;2023-07-16T15:33:55;26.90;85.90
7704;DHT22;3894;49.700;10.770;2023-07-16T15:36:21;26.90;87.30
7704;DHT22;3894;49.700;10.770;2023-07-16T15:38:47;27.20;87.60
7704;DHT22;3894;49.700;10.770;2023-07-16T15:41:16;27.40;87.80
7704;DHT22;3894;49.700;10.770;2023-07-16T15:43:45;27.60;86.60
7704;DHT22;3894;49.700;10.770;2023-07-16T15:46:15;27.70;84.40
7704;DHT22;3894;49.700;10.770;2023-07-16T15:48:41;27.50;83.90